createdAt,value
2022-08-02T00:01:22.688Z,68.93
2022-08-02T00:03:50.622Z,68.56
2022-08-02T00:06:18.535Z,68.76
2022-08-02T00:08:46.547Z,69.01
2022-08-02T00:11:14.502Z,69.15
2022-08-02T00:13:42.406Z,69.27
2022-08-02T00:16:10.283Z,69.20
2022-08-02T00:18:45.075Z,69.33
2022-08-02T00:21:13.675Z,69.25
2022-08-02T00:24:04.950Z,69.53
2022-08-02T00:26:30.692Z,69.63
2022-08-02T00:28:58.548Z,69.51
2022-08-02T00:31:26.448Z,69.53
2022-08-02T00:34:28.313Z,69.48
2022-08-02T00:36:42.274Z,69.40
2022-08-02T00:39:33.587Z,69.27
2022-08-02T00:41:58.094Z,69.64
2022-08-02T00:44:25.990Z,69.67
2022-08-02T00:46:53.794Z,69.87
2022-08-02T00:49:21.618Z,69.90
2022-08-02T00:51:49.499Z,70.10
2022-08-02T00:54:17.362Z,70.09
2022-08-02T00:56:50.038Z,70.15
2022-08-02T00:59:19.246Z,70.14
2022-08-02T01:01:57.385Z,70.03
2022-08-02T01:04:31.340Z,70.14
2022-08-02T01:07:01.663Z,70.07
2022-08-02T01:09:29.612Z,69.87
2022-08-02T01:11:57.748Z,69.97
2022-08-02T01:14:30.728Z,70.12
2022-08-02T01:17:39.678Z,69.81
2022-08-02T01:20:48.064Z,69.95
2022-08-02T01:24:16.214Z,69.52
2022-08-02T01:26:53.413Z,69.36
2022-08-02T01:29:36.110Z,69.55
2022-08-02T01:32:14.171Z,69.61
2022-08-02T01:34:58.816Z,69.59
2022-08-02T01:37:44.818Z,69.77
2022-08-02T01:40:20.611Z,69.87
2022-08-02T01:42:53.314Z,69.90
2022-08-02T01:45:24.312Z,69.86
2022-08-02T01:47:52.939Z,69.99
2022-08-02T01:50:29.571Z,70.14
2022-08-02T01:53:00.511Z,70.16
2022-08-02T01:55:35.063Z,70.33
2022-08-02T01:58:21.141Z,70.19
2022-08-02T02:00:49.881Z,70.40
2022-08-02T02:03:24.758Z,70.53
2022-08-02T02:05:57.550Z,70.63
2022-08-02T02:08:31.773Z,70.68
2022-08-02T02:12:11.760Z,70.70
2022-08-02T02:13:50.326Z,70.77
2022-08-02T02:16:20.444Z,70.77
2022-08-02T02:18:49.262Z,70.86
2022-08-02T02:21:17.089Z,70.90
2022-08-02T02:23:45.133Z,70.75
2022-08-02T02:26:17.550Z,70.97
2022-08-02T02:28:59.727Z,70.92
2022-08-02T02:31:30.449Z,70.88
2022-08-02T02:34:13.436Z,70.94
2022-08-02T02:36:46.952Z,70.91
2022-08-02T02:39:16.109Z,71.28
2022-08-02T02:41:44.753Z,71.37
2022-08-02T02:44:17.632Z,71.37
2022-08-02T02:46:48.501Z,71.04
2022-08-02T02:49:18.271Z,71.67
2022-08-02T02:51:46.306Z,71.77
2022-08-02T02:54:30.158Z,71.67
2022-08-02T02:57:05.226Z,71.49
2022-08-02T02:59:43.096Z,71.70
2022-08-02T03:02:18.994Z,72.12
2022-08-02T03:04:56.944Z,72.04
2022-08-02T03:07:27.096Z,72.16
2022-08-02T03:09:55.429Z,72.52
2022-08-02T03:12:30.825Z,72.45
2022-08-02T03:15:02.342Z,72.40
2022-08-02T03:17:45.656Z,72.53
2022-08-02T03:20:19.416Z,72.58
2022-08-02T03:22:47.768Z,72.78
2022-08-02T03:25:17.574Z,73.02
2022-08-02T03:27:45.792Z,73.17
2022-08-02T03:30:15.301Z,73.41
2022-08-02T03:32:47.789Z,73.21
2022-08-02T03:35:22.924Z,73.13
2022-08-02T03:37:54.505Z,72.90
2022-08-02T03:40:23.339Z,73.44
2022-08-02T03:42:51.701Z,73.23
2022-08-02T03:45:20.299Z,73.40
2022-08-02T03:47:48.319Z,73.37
2022-08-02T03:50:16.667Z,73.51
2022-08-02T03:52:45.720Z,73.45
2022-08-02T03:55:14.067Z,73.78
2022-08-02T03:57:42.990Z,73.77
2022-08-02T04:00:15.626Z,73.55
2022-08-02T04:02:43.610Z,73.86
2022-08-02T04:05:11.570Z,74.05
2022-08-02T04:08:32.703Z,73.86
2022-08-02T04:10:27.361Z,73.86
2022-08-02T04:12:55.942Z,74.20
2022-08-02T04:15:24.654Z,74.17
2022-08-02T04:17:59.478Z,73.91
2022-08-02T04:20:31.696Z,74.06
2022-08-02T04:23:08.298Z,74.22
2022-08-02T04:25:40.295Z,74.16
2022-08-02T04:28:16.947Z,73.94
2022-08-02T04:30:50.090Z,73.82
2022-08-02T04:33:18.400Z,73.74
2022-08-02T04:35:46.261Z,73.63
2022-08-02T04:38:15.812Z,73.60
2022-08-02T04:40:55.550Z,73.45
2022-08-02T04:43:24.214Z,73.26
2022-08-02T04:45:54.774Z,73.07
2022-08-02T04:48:23.631Z,72.92
2022-08-02T04:50:52.209Z,72.74
2022-08-02T04:53:20.120Z,72.37
2022-08-02T04:55:47.953Z,71.95
2022-08-02T04:58:39.393Z,71.60
2022-08-02T05:01:04.181Z,71.40
2022-08-02T05:03:32.163Z,70.86
2022-08-02T05:06:03.741Z,70.69
2022-08-02T05:08:41.091Z,70.82
2022-08-02T05:11:09.125Z,70.59
2022-08-02T05:13:58.522Z,70.38
2022-08-02T05:16:30.695Z,70.38
2022-08-02T05:19:02.010Z,69.99
2022-08-02T05:21:32.026Z,69.87
2022-08-02T05:24:00.145Z,70.01
2022-08-02T05:26:27.949Z,70.04
2022-08-02T05:28:55.814Z,69.76
2022-08-02T05:31:23.966Z,69.66
2022-08-02T05:33:51.823Z,69.48
2022-08-02T05:36:21.698Z,69.33
2022-08-02T05:38:51.230Z,68.97
2022-08-02T05:41:20.608Z,68.52
2022-08-02T05:43:48.510Z,68.93
2022-08-02T05:46:16.561Z,68.53
2022-08-02T05:48:45.759Z,68.02
2022-08-02T05:51:38.217Z,67.22
2022-08-02T05:54:16.715Z,66.79
2022-08-02T05:56:55.809Z,65.82
2022-08-02T05:59:41.118Z,65.61
2022-08-02T06:02:39.531Z,64.96
2022-08-02T06:05:15.991Z,64.88
2022-08-02T06:07:45.585Z,64.32
2022-08-02T06:10:16.890Z,63.04
2022-08-02T06:13:16.528Z,61.62
2022-08-02T06:15:53.436Z,60.77
2022-08-02T06:18:28.524Z,59.89
2022-08-02T06:22:33.202Z,60.73
2022-08-02T06:23:57.743Z,60.06
2022-08-02T06:26:28.593Z,58.55
2022-08-02T06:28:59.483Z,56.67
2022-08-02T06:31:27.626Z,55.44
2022-08-02T06:33:56.335Z,56.41
2022-08-02T06:36:42.950Z,54.56
2022-08-02T06:39:20.451Z,52.89
2022-08-02T06:41:50.318Z,51.63
2022-08-02T06:47:12.362Z,50.56
2022-08-02T06:49:52.541Z,49.60
2022-08-02T06:52:28.709Z,48.86
2022-08-02T06:55:03.964Z,49.24
2022-08-02T06:57:32.990Z,48.82
2022-08-02T07:00:02.686Z,48.74
2022-08-02T07:02:31.892Z,47.96
2022-08-02T07:05:01.437Z,48.40
2022-08-02T07:07:29.531Z,48.40
2022-08-02T07:10:01.221Z,48.02
2022-08-02T07:12:32.218Z,47.27
2022-08-02T07:15:07.370Z,47.16
2022-08-02T07:17:36.111Z,46.86
2022-08-02T07:20:04.755Z,46.64
2022-08-02T07:22:32.839Z,46.14
2022-08-02T07:25:01.928Z,45.32
2022-08-02T07:27:30.259Z,44.77
2022-08-02T07:29:59.031Z,44.75
2022-08-02T07:32:30.298Z,44.34
2022-08-02T07:35:00.061Z,42.90
2022-08-02T07:37:53.239Z,43.33
2022-08-02T07:40:22.399Z,42.85
2022-08-02T07:42:57.888Z,41.98
2022-08-02T07:45:28.288Z,42.02
2022-08-02T07:47:57.063Z,42.43
2022-08-02T07:50:24.998Z,42.30
2022-08-02T07:52:57.217Z,41.74
2022-08-02T07:55:33.382Z,41.97
2022-08-02T07:58:12.883Z,41.27
2022-08-02T08:00:43.941Z,41.51
2022-08-02T08:03:12.295Z,40.21
2022-08-02T08:05:40.881Z,40.01
2022-08-02T08:08:16.953Z,39.85
2022-08-02T08:22:55.058Z,38.68
2022-08-02T08:25:22.991Z,38.85
2022-08-02T08:27:55.082Z,38.90
2022-08-02T08:30:23.207Z,38.31
2022-08-02T08:32:51.126Z,38.03
2022-08-02T08:35:19.289Z,38.80
2022-08-02T08:37:49.629Z,37.77
2022-08-02T08:40:19.751Z,37.90
2022-08-02T08:42:48.098Z,37.56
2022-08-02T08:45:18.124Z,37.92
2022-08-02T08:47:53.385Z,37.43
2022-08-02T08:50:26.121Z,36.77
2022-08-02T08:53:02.913Z,37.17
2022-08-02T08:55:32.108Z,37.31
2022-08-02T08:58:01.480Z,36.50
2022-08-02T09:00:35.926Z,37.33
2022-08-02T09:03:08.677Z,37.20
2022-08-02T09:05:40.093Z,36.78
2022-08-02T09:08:11.277Z,36.79
2022-08-02T09:10:45.073Z,36.76
2022-08-02T09:13:44.942Z,36.86
2022-08-02T09:16:14.827Z,36.47
2022-08-02T09:18:46.917Z,36.56
2022-08-02T09:21:22.139Z,36.86
2022-08-02T09:23:57.600Z,36.16
2022-08-02T09:26:26.948Z,36.28
2022-08-02T09:29:02.147Z,36.35
2022-08-02T09:31:30.002Z,36.54
2022-08-02T09:33:59.867Z,36.64
2022-08-02T09:36:44.543Z,35.68
2022-08-02T09:39:15.824Z,36.77
2022-08-02T09:41:45.605Z,35.66
2022-08-02T09:44:16.263Z,35.39
2022-08-02T09:46:47.638Z,35.23
2022-08-02T09:49:18.549Z,35.19
2022-08-02T09:51:49.249Z,34.97
2022-08-02T09:54:36.537Z,35.65
2022-08-02T09:57:04.576Z,35.19
2022-08-02T09:59:32.815Z,35.85
2022-08-02T10:02:17.129Z,35.63
2022-08-02T10:04:53.303Z,35.66
2022-08-02T10:07:23.369Z,35.93
2022-08-02T10:09:52.411Z,35.89
2022-08-02T10:12:23.155Z,35.86
2022-08-02T10:14:52.177Z,35.64
2022-08-02T10:17:21.291Z,35.57
2022-08-02T10:20:01.978Z,35.35
2022-08-02T10:22:35.009Z,35.36
2022-08-02T10:25:05.314Z,35.48
2022-08-02T10:28:02.398Z,35.11
2022-08-02T10:30:24.732Z,35.49
2022-08-02T10:32:54.316Z,35.46
2022-08-02T10:35:25.621Z,35.45
2022-08-02T10:38:03.932Z,34.59
2022-08-02T10:40:44.474Z,33.73
2022-08-02T10:43:14.278Z,33.76
2022-08-02T10:45:42.234Z,33.71
2022-08-02T10:48:15.274Z,34.01
2022-08-02T10:50:49.416Z,33.98
2022-08-02T10:53:29.499Z,33.89
2022-08-02T10:56:03.815Z,33.37
2022-08-02T10:58:35.047Z,34.02
2022-08-02T11:01:26.845Z,34.06
2022-08-02T11:04:10.588Z,34.29
2022-08-02T11:07:17.682Z,35.02
2022-08-02T11:09:48.338Z,37.20
2022-08-02T11:12:21.539Z,36.64
2022-08-02T11:15:07.766Z,38.72
2022-08-02T11:17:56.869Z,38.70
2022-08-02T11:20:27.395Z,38.24
2022-08-02T11:23:44.046Z,37.74
2022-08-02T11:26:32.105Z,37.57
2022-08-02T11:29:03.564Z,39.14
2022-08-02T11:31:40.862Z,38.97
2022-08-02T11:34:10.122Z,37.33
2022-08-02T11:36:50.700Z,39.36
2022-08-02T11:39:21.727Z,38.44
2022-08-02T11:41:58.891Z,37.88
2022-08-02T11:44:28.989Z,39.16
2022-08-02T11:47:03.357Z,39.29
2022-08-02T11:49:31.594Z,40.45
2022-08-02T11:52:06.437Z,39.51
2022-08-02T11:54:40.617Z,40.33
2022-08-02T11:57:21.453Z,41.18
2022-08-02T11:59:53.469Z,41.25
2022-08-02T12:02:31.679Z,39.89
2022-08-02T12:05:03.146Z,42.56
2022-08-02T12:07:46.093Z,42.13
2022-08-02T12:10:24.494Z,40.75
2022-08-02T12:12:58.351Z,41.23
2022-08-02T12:15:45.400Z,40.99
2022-08-02T12:18:38.048Z,41.02
2022-08-02T12:21:23.661Z,40.36
2022-08-02T12:23:59.347Z,38.52
2022-08-02T12:26:30.787Z,39.43
2022-08-02T12:28:59.896Z,38.62
2022-08-02T12:31:56.017Z,37.92
2022-08-02T12:34:31.493Z,38.32
2022-08-02T12:37:08.077Z,37.26
2022-08-02T12:39:46.431Z,38.37
2022-08-02T12:42:16.287Z,37.12
2022-08-02T12:44:59.282Z,36.75
2022-08-02T12:47:35.642Z,37.52
2022-08-02T12:50:37.278Z,37.44
2022-08-02T12:53:08.148Z,36.71
2022-08-02T12:56:02.085Z,36.76
2022-08-02T12:58:31.205Z,36.94
2022-08-02T13:01:01.474Z,37.28
2022-08-02T13:04:07.702Z,36.55
2022-08-02T13:09:17.241Z,35.60
2022-08-02T13:11:45.718Z,35.54
2022-08-02T13:14:14.323Z,35.39
2022-08-02T13:16:46.091Z,34.81
2022-08-02T13:19:15.779Z,34.24
2022-08-02T13:22:01.906Z,34.54
2022-08-02T13:24:40.780Z,34.07
2022-08-02T13:27:21.611Z,34.33
2022-08-02T13:29:51.673Z,34.94
2022-08-02T13:32:20.786Z,34.86
2022-08-02T13:34:49.079Z,35.08
2022-08-02T13:37:18.633Z,35.73
2022-08-02T13:40:05.499Z,35.61
2022-08-02T13:42:34.534Z,35.49
2022-08-02T13:45:12.969Z,34.33
2022-08-02T13:48:04.527Z,34.63
2022-08-02T13:50:33.175Z,34.79
2022-08-02T13:53:01.199Z,35.37
2022-08-02T13:55:29.248Z,35.74
2022-08-02T13:57:57.820Z,35.65
2022-08-02T14:00:35.555Z,36.06
2022-08-02T14:03:07.110Z,35.34
2022-08-02T14:05:48.166Z,36.67
2022-08-02T14:08:18.660Z,36.83
2022-08-02T14:10:47.894Z,37.00
2022-08-02T14:13:16.869Z,37.81
2022-08-02T14:15:47.751Z,37.84
2022-08-02T14:18:15.741Z,37.91
2022-08-02T14:20:45.278Z,36.98
2022-08-02T14:23:13.314Z,37.72
2022-08-02T14:25:41.369Z,38.39
2022-08-02T14:28:09.464Z,38.20
2022-08-02T14:30:37.549Z,38.05
2022-08-02T14:33:05.539Z,38.73
2022-08-02T14:35:33.585Z,39.13
2022-08-02T14:38:01.493Z,39.46
2022-08-02T14:40:31.766Z,39.04
2022-08-02T14:43:02.934Z,39.60
2022-08-02T14:45:39.764Z,38.98
2022-08-02T14:48:11.405Z,39.02
2022-08-02T14:50:39.267Z,39.47
2022-08-02T14:53:12.454Z,39.71
2022-08-02T14:55:45.190Z,40.27
2022-08-02T14:58:12.970Z,39.66
2022-08-02T15:00:41.763Z,39.67
2022-08-02T15:03:11.977Z,40.40
2022-08-02T15:05:40.491Z,40.34
2022-08-02T15:08:08.371Z,39.57
2022-08-02T15:10:36.327Z,39.76
2022-08-02T15:13:04.508Z,40.00
2022-08-02T15:15:32.457Z,39.65
2022-08-02T15:18:14.220Z,39.60
2022-08-02T15:20:47.786Z,40.05
2022-08-02T15:23:37.637Z,40.38
2022-08-02T15:26:06.997Z,40.38
2022-08-02T15:28:35.092Z,40.48
2022-08-02T15:31:02.995Z,40.42
2022-08-02T15:33:33.207Z,40.12
2022-08-02T15:36:00.973Z,39.65
2022-08-02T15:38:28.863Z,40.09
2022-08-02T15:40:56.799Z,39.23
2022-08-02T15:43:24.819Z,39.14
2022-08-02T15:45:52.744Z,38.61
2022-08-02T15:48:20.601Z,38.90
2022-08-02T15:50:48.500Z,38.85
2022-08-02T15:53:16.381Z,39.08
2022-08-02T15:55:53.191Z,39.23
2022-08-02T15:58:31.941Z,38.96
2022-08-02T16:01:00.082Z,38.87
2022-08-02T16:03:28.378Z,38.47
2022-08-02T16:05:56.283Z,38.32
2022-08-02T16:08:24.108Z,38.64
2022-08-02T16:10:51.925Z,38.43
2022-08-02T16:13:49.935Z,38.78
2022-08-02T16:16:34.058Z,38.36
2022-08-02T16:19:46.317Z,38.17
2022-08-02T16:21:53.797Z,37.54
2022-08-02T16:24:22.263Z,37.89
2022-08-02T16:26:53.061Z,38.26
2022-08-02T16:29:20.902Z,38.48
2022-08-02T16:31:48.772Z,38.39
2022-08-02T16:34:21.061Z,38.40
2022-08-02T16:36:50.282Z,38.22
2022-08-02T16:39:18.133Z,38.39
2022-08-02T16:41:51.455Z,38.42
2022-08-02T16:44:29.538Z,38.97
2022-08-02T16:47:00.831Z,39.04
2022-08-02T16:50:07.223Z,38.87
2022-08-02T16:52:19.507Z,38.93
2022-08-02T16:54:49.952Z,39.04
2022-08-02T16:57:19.541Z,39.14
2022-08-02T16:59:58.219Z,39.45
2022-08-02T17:02:27.857Z,39.92
2022-08-02T17:04:56.785Z,39.92
2022-08-02T17:08:07.083Z,40.04
2022-08-02T17:10:12.779Z,40.45
2022-08-02T17:12:40.920Z,40.87
2022-08-02T17:16:01.403Z,40.77
2022-08-02T17:17:58.592Z,41.74
2022-08-02T17:20:26.374Z,41.64
2022-08-02T17:22:54.404Z,41.66
2022-08-02T17:25:24.793Z,41.64
2022-08-02T17:27:55.646Z,41.47
2022-08-02T17:30:31.491Z,40.99
2022-08-02T17:32:59.506Z,41.08
2022-08-02T17:35:43.173Z,41.12
2022-08-02T17:38:26.654Z,41.18
2022-08-02T17:40:56.383Z,41.31
2022-08-02T17:43:29.177Z,41.14
2022-08-02T17:46:02.552Z,41.40
2022-08-02T17:52:47.672Z,42.04
2022-08-02T17:54:45.529Z,42.29
2022-08-02T17:57:14.612Z,43.13
2022-08-02T18:00:03.915Z,44.02
2022-08-02T18:02:36.749Z,43.65
2022-08-02T18:05:06.255Z,43.78
2022-08-02T18:07:50.215Z,44.22
2022-08-02T18:10:29.158Z,44.12
2022-08-02T18:13:03.784Z,44.52
2022-08-02T18:15:35.080Z,44.86
2022-08-02T18:18:05.612Z,44.92
2022-08-02T18:20:40.922Z,45.34
2022-08-02T18:23:13.504Z,45.37
2022-08-02T18:25:46.069Z,45.65
2022-08-02T18:28:19.632Z,46.29
2022-08-02T18:30:55.407Z,47.09
2022-08-02T18:33:56.985Z,47.89
2022-08-02T18:36:24.457Z,48.22
2022-08-02T18:38:53.757Z,47.96
2022-08-02T18:41:22.344Z,48.14
2022-08-02T18:43:52.689Z,47.88
2022-08-02T18:46:20.485Z,48.39
2022-08-02T18:48:48.375Z,50.71
2022-08-02T18:51:19.433Z,51.15
2022-08-02T18:53:52.421Z,51.34
2022-08-02T18:56:24.790Z,51.95
2022-08-02T18:58:55.252Z,52.72
2022-08-02T19:01:31.930Z,53.45
2022-08-02T19:04:08.608Z,52.22
2022-08-02T19:06:37.195Z,53.12
2022-08-02T19:09:13.209Z,53.78
2022-08-02T19:11:47.240Z,54.45
2022-08-02T19:14:24.178Z,54.58
2022-08-02T19:17:53.586Z,55.31
2022-08-02T19:19:48.523Z,55.70
2022-08-02T19:22:20.398Z,56.13
2022-08-02T19:24:51.986Z,55.70
2022-08-02T19:27:25.908Z,55.74
2022-08-02T19:30:07.514Z,56.17
2022-08-02T19:32:39.846Z,56.46
2022-08-02T19:35:19.405Z,56.57
2022-08-02T19:38:09.370Z,56.85
2022-08-02T19:40:42.346Z,57.40
2022-08-02T19:44:26.076Z,57.81
2022-08-02T19:46:00.525Z,58.09
2022-08-02T19:48:29.189Z,58.41
2022-08-02T19:51:00.662Z,58.69
2022-08-02T19:56:25.480Z,59.01
2022-08-02T19:58:59.732Z,59.41
2022-08-02T20:01:39.458Z,59.69
2022-08-02T20:04:12.887Z,59.67
2022-08-02T20:06:47.596Z,59.71
2022-08-02T20:09:21.554Z,59.91
2022-08-02T20:11:54.353Z,60.32
2022-08-02T20:14:27.017Z,60.69
2022-08-02T20:17:00.077Z,60.84
2022-08-02T20:19:29.132Z,61.04
2022-08-02T20:22:00.542Z,60.94
2022-08-02T20:24:30.362Z,61.21
2022-08-02T20:26:59.749Z,61.33
2022-08-02T20:29:42.912Z,62.10
2022-08-02T20:32:14.977Z,63.61
2022-08-02T20:34:43.082Z,63.47
2022-08-02T20:38:00.381Z,61.71
2022-08-02T20:40:09.411Z,61.43
2022-08-02T20:42:37.626Z,61.11
2022-08-02T20:45:13.053Z,61.54
2022-08-02T20:47:52.396Z,61.69
2022-08-02T20:50:41.456Z,61.50
2022-08-02T20:53:23.909Z,61.33
2022-08-02T20:55:55.419Z,61.35
2022-08-02T20:58:28.012Z,61.27
2022-08-02T21:00:59.882Z,61.68
2022-08-02T21:03:38.823Z,61.97
2022-08-02T21:06:15.155Z,62.07
2022-08-02T21:08:46.086Z,62.35
2022-08-02T21:11:14.492Z,62.71
2022-08-02T21:13:46.424Z,62.58
2022-08-02T21:16:18.433Z,62.81
2022-08-02T21:18:51.505Z,63.07
2022-08-02T21:21:19.484Z,63.13
2022-08-02T21:23:54.405Z,62.93
2022-08-02T21:26:27.822Z,63.08
2022-08-02T21:29:00.794Z,63.06
2022-08-02T21:31:36.161Z,63.35
2022-08-02T21:34:21.740Z,63.29
2022-08-02T21:36:50.708Z,63.33
2022-08-02T21:39:21.107Z,63.61
2022-08-02T21:41:49.677Z,63.89
2022-08-02T21:44:20.107Z,64.19
2022-08-02T21:46:53.816Z,64.23
2022-08-02T21:49:40.534Z,64.35
2022-08-02T21:52:09.179Z,64.32
2022-08-02T21:54:40.387Z,64.56
2022-08-02T21:57:15.608Z,65.37
2022-08-02T21:59:46.397Z,65.07
2022-08-02T22:02:16.726Z,64.22
2022-08-02T22:04:47.882Z,63.35
2022-08-02T22:07:23.652Z,61.31
2022-08-02T22:09:53.375Z,57.89
2022-08-02T22:12:25.828Z,57.44
2022-08-02T22:14:55.662Z,58.54
2022-08-02T22:17:50.569Z,59.36
2022-08-02T22:20:20.245Z,60.01
2022-08-02T22:22:51.179Z,60.66
2022-08-02T22:25:27.122Z,61.27
2022-08-02T22:28:37.983Z,61.71
2022-08-02T22:30:57.458Z,62.08
2022-08-02T22:33:47.181Z,64.21
2022-08-02T22:36:30.104Z,63.56
2022-08-02T22:38:58.657Z,61.59
2022-08-02T22:47:11.699Z,57.51
2022-08-02T22:49:53.061Z,58.35
2022-08-02T22:52:23.976Z,59.30
2022-08-02T22:54:52.010Z,60.09
2022-08-02T22:57:30.879Z,60.81
2022-08-02T22:59:06.148Z,58.95
2022-08-02T22:59:09.693Z,60.08
2022-08-02T22:59:09.786Z,57.43
2022-08-02T23:00:00.524Z,61.57
2022-08-02T23:02:28.418Z,62.08
2022-08-02T23:04:58.352Z,63.62
2022-08-02T23:07:26.752Z,63.20
2022-08-02T23:09:55.829Z,61.93
2022-08-02T23:12:24.288Z,59.95
2022-08-02T23:14:52.952Z,57.31
2022-08-02T23:17:39.292Z,57.15
2022-08-02T23:20:15.725Z,58.48
2022-08-02T23:22:43.668Z,59.89
2022-08-02T23:25:12.823Z,60.54
2022-08-02T23:27:49.875Z,61.05
2022-08-02T23:30:19.957Z,61.92
2022-08-02T23:32:48.214Z,63.71
2022-08-02T23:35:17.020Z,63.57
2022-08-02T23:38:00.173Z,60.84
2022-08-02T23:40:40.632Z,58.10
2022-08-02T23:43:14.395Z,58.23
2022-08-02T23:45:45.660Z,59.41
2022-08-02T23:48:14.155Z,60.65
2022-08-02T23:50:42.435Z,61.71
2022-08-02T23:53:10.300Z,63.79
2022-08-02T23:55:38.191Z,63.13
2022-08-02T23:58:05.991Z,60.37
